Time;durP1;ratioP1;P1;durP2;ratioP2;P2;SDS_P1;SDS_P2;PMS_P1;PMS_P2;Temp;Humidity;BMP_temperature;BMP_pressure;BME280_temperature;BME280_humidity;BME280_pressure;Samples;Min_cycle;Max_cycle;Signal;HPM_P1;HPM_P2
2023/01/17 00:02:12;;;;;;;8.53;4.20;;;4.90;99.90;;;4.97;92.40;98278.50;5095999;28;20036;-62
2023/01/17 00:10:17;;;;;;;12.40;4.70;;;5.20;99.90;;;5.21;90.00;98326.78;5095720;28;20044;-62
2023/01/17 00:12:47;;;;;;;11.53;4.87;;;5.20;99.90;;;5.11;89.48;98265.06;5095352;28;20486;-62
2023/01/17 00:15:18;;;;;;;7.32;4.80;;;5.40;99.90;;;5.65;88.36;98323.09;5095590;28;20048;-62
2023/01/17 00:17:47;;;;;;;6.47;4.40;;;5.60;99.90;;;5.58;87.30;98316.25;5077384;28;20059;-62
2023/01/17 00:26:05;;;;;;;10.73;4.90;;;5.50;99.90;;;5.40;86.03;98331.56;5077113;28;19988;-62
2023/01/17 01:33:38;;;;;;;6.03;4.18;;;6.00;99.90;;;6.23;80.17;98397.59;5093606;28;20048;-62
2023/01/17 01:36:08;;;;;;;6.70;3.97;;;6.00;99.90;;;6.26;79.97;98405.41;5075325;28;20126;-63
2023/01/17 01:38:37;;;;;;;6.45;4.60;;;6.10;99.90;;;6.13;79.92;98396.13;5093310;28;20052;-62
2023/01/17 01:41:07;;;;;;;11.55;4.68;;;6.10;99.90;;;6.22;79.99;98410.75;5075301;28;20582;-63
2023/01/17 01:43:46;;;;;;;8.23;4.40;;;6.10;99.90;;;6.10;79.71;98400.56;5075246;28;20048;-62
2023/01/17 01:46:21;;;;;;;5.38;4.10;;;6.10;99.90;;;5.97;79.68;98410.56;5093461;28;20072;-62
2023/01/17 01:48:55;;;;;;;10.47;4.37;;;5.90;99.90;;;6.00;80.13;98417.50;5093067;28;20086;-62
2023/01/17 01:51:29;;;;;;;8.03;4.33;;;5.90;99.90;;;5.21;79.33;98311.06;5093099;28;20044;-62
2023/01/17 01:54:04;;;;;;;8.25;4.60;;;5.90;99.90;;;5.75;79.53;98430.28;5093119;28;20097;-62
2023/01/17 01:56:34;;;;;;;6.75;4.60;;;5.70;99.90;;;5.61;80.16;98421.94;5093257;28;20513;-63
2023/01/17 01:59:07;;;;;;;7.35;4.03;;;5.70;99.90;;;5.47;79.99;98413.53;5093006;28;20044;-62
2023/01/17 02:01:36;;;;;;;8.60;4.37;;;5.60;99.90;;;5.53;79.97;98405.53;5093187;28;20075;-62
2023/01/17 02:04:08;;;;;;;9.00;4.33;;;5.60;99.90;;;5.60;79.80;98435.91;5092877;28;20046;-62
2023/01/17 02:06:40;;;;;;;5.18;4.18;;;5.60;99.90;;;5.57;79.84;98441.25;5092808;28;20048;-62
2023/01/17 02:09:12;;;;;;;9.57;4.40;;;5.40;99.90;;;5.64;79.72;98458.53;5092792;28;20419;-62
2023/01/17 02:11:42;;;;;;;11.00;5.00;;;5.50;99.90;;;5.46;79.90;98393.44;5092949;28;20089;-63
2023/01/17 02:14:16;;;;;;;8.05;4.30;;;5.60;99.90;;;5.74;80.26;98441.69;5092692;28;20375;-62
2023/01/17 02:17:01;;;;;;;11.10;4.75;;;5.60;99.90;;;5.69;79.81;98438.31;5092514;28;20119;-63
2023/01/17 02:20:27;;;;;;;7.10;4.40;;;5.60;99.90;;;5.64;80.08;98434.94;5092476;28;20422;-63
2023/01/17 02:23:45;;;;;;;8.15;4.93;;;5.60;99.90;;;5.55;79.26;98442.16;5090884;28;20063;-62
2023/01/17 02:26:55;;;;;;;15.80;5.30;;;5.50;99.90;;;5.59;77.11;98457.81;5015558;28;20139;-62
2023/01/17 02:30:16;;;;;;;13.82;5.60;;;5.40;99.90;;;4.69;74.65;98303.59;5092474;28;20409;-62
2023/01/17 02:33:01;;;;;;;11.05;4.38;;;5.40;99.90;;;5.59;73.22;98457.81;5074650;28;20048;-63
2023/01/17 02:35:42;;;;;;;14.32;5.15;;;5.40;99.90;;;5.63;72.37;98455.97;5092780;28;20435;-63
2023/01/17 02:38:24;;;;;;;10.15;4.47;;;5.50;99.90;;;5.98;71.89;98469.97;5092895;28;20452;-63
2023/01/17 02:40:57;;;;;;;11.95;5.20;;;5.70;99.90;;;6.11;70.92;98460.91;5092965;28;20048;-62
2023/01/17 02:43:27;;;;;;;12.93;4.80;;;6.00;99.90;;;5.93;71.28;98429.88;5093044;28;20409;-62
2023/01/17 02:45:56;;;;;;;11.43;4.35;;;6.00;99.90;;;5.93;72.29;98456.13;5092572;28;20064;-63
2023/01/17 02:48:30;;;;;;;17.50;4.20;;;5.90;99.90;;;6.18;72.76;98465.09;5092429;28;20046;-62
2023/01/17 02:51:37;;;;;;;17.58;4.95;;;6.00;99.90;;;5.98;72.99;98440.28;5092366;28;20450;-62
2023/01/17 02:54:32;;;;;;;13.48;4.82;;;6.00;99.90;;;6.08;73.50;98460.09;5086583;28;20514;-63
2023/01/17 02:57:27;;;;;;;11.93;4.78;;;6.00;99.90;;;6.04;74.23;98467.19;5092354;28;20127;-62
2023/01/17 03:00:04;;;;;;;13.00;5.15;;;5.90;99.90;;;6.05;74.75;98460.19;5092891;28;20097;-62
2023/01/17 03:02:42;;;;;;;22.95;5.05;;;5.90;99.90;;;6.05;75.04;98460.19;5092726;28;20040;-62
2023/01/17 03:05:15;;;;;;;15.65;5.00;;;5.80;99.90;;;5.86;75.53;98458.94;5092486;28;20052;-62
2023/01/17 03:07:47;;;;;;;15.23;5.32;;;5.70;99.90;;;5.76;75.86;98475.75;5092425;28;20078;-62
2023/01/17 03:10:18;;;;;;;10.52;5.05;;;5.60;99.90;;;5.79;75.29;98470.44;5074454;28;20048;-62
2023/01/17 03:12:46;;;;;;;16.63;4.82;;;5.60;99.90;;;5.87;75.52;98469.38;5092548;28;20115;-62
2023/01/17 03:15:17;;;;;;;14.68;4.90;;;5.70;99.90;;;5.71;74.97;98462.72;5092473;28;20106;-62
2023/01/17 03:17:50;;;;;;;20.60;5.97;;;5.60;99.90;;;5.78;74.61;98471.31;5092936;28;20135;-62
2023/01/17 03:20:19;;;;;;;18.85;6.28;;;5.60;99.90;;;5.50;74.11;98450.13;5092507;28;20047;-63
2023/01/17 03:22:50;;;;;;;12.15;5.10;;;5.50;99.90;;;5.70;73.95;98462.78;5092597;28;20437;-62
2023/01/17 03:25:18;;;;;;;11.23;4.85;;;5.50;99.90;;;5.74;73.67;98469.69;5092284;28;20044;-63
2023/01/17 03:27:47;;;;;;;11.57;5.53;;;5.50;99.90;;;5.71;73.97;98470.59;5092606;28;20490;-62
2023/01/17 03:30:16;;;;;;;10.68;4.35;;;5.50;99.90;;;5.71;74.06;98467.97;5095420;28;20052;-62
2023/01/17 03:32:47;;;;;;;10.57;4.80;;;5.50;99.90;;;5.73;73.47;98474.03;5096651;28;20048;-62
2023/01/17 03:35:16;;;;;;;11.52;4.75;;;5.50;99.90;;;5.73;73.31;98467.97;5096575;28;20040;-62
2023/01/17 03:37:44;;;;;;;9.07;4.53;;;5.60;99.90;;;5.85;72.79;98480.78;5096550;28;20131;-63
2023/01/17 03:40:13;;;;;;;8.48;4.72;;;5.70;99.90;;;5.77;72.49;98475.69;5096232;28;20070;-62
2023/01/17 03:42:41;;;;;;;9.93;5.13;;;5.60;99.90;;;5.81;71.75;98477.34;5096134;28;20122;-62
2023/01/17 03:45:11;;;;;;;9.30;4.57;;;5.60;99.90;;;5.74;71.45;98475.78;5078190;28;20047;-63
2023/01/17 03:47:39;;;;;;;10.47;4.90;;;5.60;99.90;;;5.73;71.52;98479.28;5096315;28;20185;-62
2023/01/17 03:50:12;;;;;;;11.27;4.78;;;5.60;99.90;;;5.58;71.61;98495.38;5078075;28;20301;-62
2023/01/17 03:52:40;;;;;;;14.20;5.63;;;5.50;99.90;;;5.57;71.38;98483.19;5096237;28;20074;-62
2023/01/17 03:55:10;;;;;;;12.93;4.80;;;5.50;99.90;;;5.61;71.09;98492.72;5096523;28;20130;-62
2023/01/17 03:57:38;;;;;;;10.73;4.60;;;5.50;99.90;;;5.53;71.06;98481.53;5096193;28;20040;-62
2023/01/17 04:00:08;;;;;;;14.38;5.45;;;5.40;99.90;;;5.54;71.07;98488.47;5095825;28;20056;-62
2023/01/17 04:02:37;;;;;;;9.98;5.30;;;5.40;99.90;;;5.67;71.04;98489.09;5096092;28;20048;-63
2023/01/17 04:05:06;;;;;;;9.52;4.65;;;5.40;99.90;;;5.74;70.91;98493.28;5095756;28;20052;-62
2023/01/17 04:07:36;;;;;;;11.00;4.65;;;5.50;99.90;;;5.70;70.74;98489.88;5095624;28;20070;-62
2023/01/17 04:10:06;;;;;;;11.07;4.88;;;5.50;99.90;;;5.79;71.35;98494.03;5095563;28;20113;-62
2023/01/17 04:12:34;;;;;;;11.85;4.75;;;5.60;99.90;;;5.77;71.66;98488.81;5077708;28;20059;-62
2023/01/17 04:15:03;;;;;;;11.82;4.57;;;5.60;99.90;;;5.83;71.63;98491.31;5095504;28;20036;-62
2023/01/17 04:17:31;;;;;;;18.38;5.22;;;5.70;99.90;;;5.68;72.11;98475.06;5095463;28;20094;-62
2023/01/17 04:20:00;;;;;;;13.73;4.95;;;5.70;99.90;;;5.78;72.47;98500.19;5095366;28;20040;-62
2023/01/17 04:22:30;;;;;;;16.85;5.05;;;5.70;99.90;;;5.75;72.38;98495.84;5095376;28;20082;-62
2023/01/17 04:25:00;;;;;;;7.85;4.65;;;5.70;99.90;;;5.72;72.79;98488.06;5095393;28;20069;-62
2023/01/17 04:27:30;;;;;;;13.93;5.10;;;5.70;99.90;;;5.74;72.78;98504.63;5095316;28;20051;-62
2023/01/17 04:29:58;;;;;;;13.30;5.30;;;5.70;99.90;;;5.75;72.44;98500.25;5095465;28;20051;-62
2023/01/17 04:32:28;;;;;;;10.82;5.55;;;5.70;99.90;;;5.73;72.13;98505.50;5095251;28;20070;-63
2023/01/17 04:34:56;;;;;;;12.87;5.60;;;5.60;99.90;;;5.27;72.19;98442.81;5095188;28;20046;-62
2023/01/17 04:37:24;;;;;;;10.48;4.78;;;5.50;99.90;;;5.59;71.66;98486.63;5095008;28;20036;-62
2023/01/17 04:39:53;;;;;;;14.93;4.53;;;5.50;99.90;;;5.71;71.72;98498.59;5094794;28;20123;-62
2023/01/17 04:42:22;;;;;;;14.57;5.93;;;5.60;99.90;;;5.71;71.63;98502.06;5094587;28;20484;-62
2023/01/17 04:44:51;;;;;;;11.93;5.00;;;5.60;99.90;;;5.77;70.98;98499.31;5094964;28;20040;-62
2023/01/17 04:47:19;;;;;;;10.50;5.10;;;5.70;99.90;;;5.73;70.93;98499.44;5095224;28;20117;-62
2023/01/17 04:49:48;;;;;;;9.98;5.38;;;5.70;99.90;;;5.49;70.80;98479.88;5095103;28;20065;-62
2023/01/17 04:52:17;;;;;;;11.73;4.47;;;5.60;99.90;;;5.56;70.84;98510.28;5094811;28;20035;-62
2023/01/17 04:54:48;;;;;;;10.77;4.83;;;5.60;99.90;;;5.41;70.50;98468.69;5094805;28;20134;-62
2023/01/17 04:57:17;;;;;;;7.47;4.75;;;5.50;99.90;;;5.65;70.22;98503.97;5094786;28;20040;-63
2023/01/17 04:59:47;;;;;;;14.68;5.10;;;5.50;99.90;;;5.71;69.80;98502.06;5076806;28;20051;-62
2023/01/17 05:02:15;;;;;;;13.02;5.63;;;5.60;99.90;;;5.40;69.32;98457.34;5076762;28;20517;-63
2023/01/17 05:04:43;;;;;;;13.63;6.18;;;5.50;99.90;;;5.70;69.44;98495.09;5076427;28;20040;-62
2023/01/17 05:07:12;;;;;;;10.55;5.40;;;5.60;99.90;;;5.67;68.83;98515.31;5094521;28;20051;-62
2023/01/17 05:09:42;;;;;;;12.98;4.97;;;5.60;99.90;;;5.70;68.86;98510.84;5094528;28;20071;-64
2023/01/17 05:12:10;;;;;;;9.38;5.78;;;5.50;99.90;;;5.71;68.70;98520.41;5094366;28;20044;-64
2023/01/17 05:14:39;;;;;;;11.52;5.28;;;5.60;99.90;;;5.61;68.51;98516.31;5094346;28;20044;-62
2023/01/17 05:17:09;;;;;;;9.98;5.20;;;5.50;99.90;;;5.50;68.90;98497.31;5094859;28;20051;-62
2023/01/17 05:19:38;;;;;;;16.55;4.55;;;5.50;99.90;;;5.68;69.05;98510.00;5094675;28;20131;-62
2023/01/17 05:22:13;;;;;;;13.65;5.10;;;5.70;99.90;;;5.76;68.96;98531.69;5094265;28;20508;-62
2023/01/17 05:24:42;;;;;;;13.45;5.35;;;5.70;99.90;;;5.79;69.43;98534.22;5094255;28;20044;-62
2023/01/17 05:27:12;;;;;;;9.10;4.38;;;5.70;99.90;;;5.49;69.25;98496.47;5094180;28;20118;-62
2023/01/17 05:29:41;;;;;;;9.77;5.00;;;5.60;99.90;;;4.28;69.09;98298.38;5094264;28;20048;-62
2023/01/17 05:32:11;;;;;;;13.50;5.35;;;5.60;99.90;;;5.58;69.06;98539.94;5093992;28;20044;-62
2023/01/17 05:34:39;;;;;;;10.18;4.90;;;5.60;99.90;;;5.64;69.05;98537.19;5076076;28;20066;-62
2023/01/17 05:37:07;;;;;;;9.00;4.90;;;5.50;99.90;;;5.59;69.02;98539.06;5094222;28;20047;-62
2023/01/17 05:39:36;;;;;;;14.85;5.65;;;5.50;99.90;;;5.65;69.92;98538.94;5076047;28;20036;-62
2023/01/17 05:42:04;;;;;;;6.65;5.05;;;5.50;99.90;;;5.65;69.02;98543.31;5094129;28;20040;-62
2023/01/17 05:44:33;;;;;;;12.13;5.10;;;5.50;99.90;;;5.51;68.82;98525.25;5093720;28;20054;-64
2023/01/17 05:47:01;;;;;;;9.10;5.23;;;5.50;99.90;;;5.64;69.08;98542.44;5093796;28;20441;-63
2023/01/17 05:49:31;;;;;;;11.33;5.67;;;5.50;99.90;;;5.73;68.60;98549.25;5093706;28;20157;-62
2023/01/17 05:51:59;;;;;;;9.50;5.37;;;5.60;99.90;;;5.72;67.82;98551.00;5093829;28;20375;-62
2023/01/17 05:54:27;;;;;;;8.52;4.95;;;5.60;99.90;;;5.77;67.68;98557.00;5093658;28;20125;-62
2023/01/17 05:56:56;;;;;;;12.52;5.40;;;5.70;99.90;;;5.72;67.39;98556.25;5075673;28;20047;-62
2023/01/17 05:59:24;;;;;;;11.97;5.30;;;5.60;99.90;;;5.60;66.96;98547.78;5075724;28;20047;-63
2023/01/17 06:02:04;;;;;;;10.98;4.90;;;5.60;99.90;;;5.68;66.88;98554.59;5093594;28;20138;-63
2023/01/17 06:04:34;;;;;;;7.20;4.70;;;5.60;99.90;;;4.94;67.04;98506.38;5093449;28;20052;-62
2023/01/17 06:07:03;;;;;;;6.68;4.50;;;5.60;99.90;;;5.73;67.19;98557.97;5093435;28;20420;-62
2023/01/17 06:09:31;;;;;;;10.55;5.40;;;5.70;99.90;;;5.73;67.20;98557.97;5093445;28;20029;-62
2023/01/17 06:11:59;;;;;;;8.45;5.43;;;5.60;99.90;;;5.74;66.98;98564.06;5075433;28;20101;-62
2023/01/17 06:14:28;;;;;;;12.00;4.60;;;5.60;99.90;;;5.71;66.32;98559.75;5075414;28;20255;-62
2023/01/17 06:16:56;;;;;;;6.20;4.83;;;5.60;99.90;;;5.73;66.69;98565.81;5093529;28;20070;-63
2023/01/17 06:19:25;;;;;;;8.70;5.47;;;5.60;99.90;;;5.71;66.18;98572.03;5075359;28;20137;-62
2023/01/17 06:21:54;;;;;;;8.23;4.97;;;5.60;99.90;;;5.71;66.21;98565.00;5093757;28;20389;-62
2023/01/17 06:24:23;;;;;;;6.77;4.60;;;5.60;99.90;;;5.76;66.75;98557.91;5093425;28;20142;-62
2023/01/17 06:26:51;;;;;;;9.97;4.83;;;5.60;99.90;;;5.77;66.14;98562.25;5093717;28;20690;-63
2023/01/17 06:29:19;;;;;;;9.73;5.07;;;5.70;99.90;;;5.81;66.13;98568.28;5093550;28;20054;-62
2023/01/17 06:31:48;;;;;;;5.30;4.70;;;5.60;99.90;;;5.87;66.29;98566.41;5093526;28;20050;-62
2023/01/17 06:34:16;;;;;;;8.67;4.83;;;5.70;99.90;;;5.78;66.30;98542.13;5093182;28;20135;-63
2023/01/17 06:36:45;;;;;;;6.28;4.50;;;5.80;99.90;;;5.93;66.24;98566.28;5075273;28;20074;-62
2023/01/17 06:39:15;;;;;;;6.10;4.32;;;5.80;99.90;;;5.97;66.14;98564.44;5093331;28;20401;-63
2023/01/17 06:41:43;;;;;;;7.10;4.82;;;5.80;99.90;;;5.82;66.05;98539.41;5093351;28;20101;-62
2023/01/17 06:44:12;;;;;;;10.27;5.13;;;5.80;99.90;;;5.93;66.00;98563.66;5093022;28;20044;-62
2023/01/17 06:46:40;;;;;;;8.95;5.40;;;5.80;99.90;;;5.89;65.78;98567.25;5093002;28;20405;-62
2023/01/17 06:49:09;;;;;;;7.80;4.57;;;5.80;99.90;;;5.82;65.88;98546.41;5093257;28;20044;-63
2023/01/17 06:51:37;;;;;;;6.10;4.80;;;5.80;99.90;;;5.90;66.06;98565.50;5092650;28;20139;-62
2023/01/17 06:54:05;;;;;;;6.40;4.93;;;5.80;99.90;;;5.92;66.19;98559.28;5092960;28;20455;-62
2023/01/17 06:56:35;;;;;;;7.85;5.57;;;5.80;99.90;;;5.73;65.76;98547.47;5093419;28;20486;-63
2023/01/17 06:59:07;;;;;;;7.78;5.13;;;5.80;99.90;;;5.79;65.94;98563.06;5093077;28;20474;-62
2023/01/17 07:01:35;;;;;;;7.33;5.50;;;5.80;99.90;;;5.85;66.36;98568.22;5091685;28;20143;-62
2023/01/17 07:04:04;;;;;;;7.83;5.27;;;5.80;99.90;;;5.84;66.44;98561.25;5093817;28;20405;-62
2023/01/17 07:06:35;;;;;;;10.07;5.13;;;5.80;99.90;;;5.84;66.78;98568.25;5096586;28;20047;-62
2023/01/17 07:09:04;;;;;;;6.13;5.40;;;5.80;99.90;;;5.59;66.62;98528.59;5078811;28;20056;-64
2023/01/17 07:11:33;;;;;;;9.27;4.65;;;5.70;99.90;;;5.82;66.78;98565.63;5096124;28;20043;-62
2023/01/17 07:14:02;;;;;;;6.93;5.17;;;5.70;99.90;;;5.74;66.42;98567.56;5096623;28;20485;-62
2023/01/17 07:16:31;;;;;;;7.28;5.18;;;5.70;99.90;;;5.63;66.37;98552.97;5096663;28;20048;-62
2023/01/17 07:18:59;;;;;;;9.35;5.10;;;5.70;99.90;;;5.69;66.31;98560.69;5096791;28;20047;-62
2023/01/17 07:21:27;;;;;;;8.15;5.85;;;5.60;99.90;;;5.62;66.52;98570.44;5096511;28;20127;-62
2023/01/17 07:23:56;;;;;;;6.13;5.32;;;5.60;99.90;;;5.60;66.92;98561.75;5096513;28;20044;-63
2023/01/17 07:26:24;;;;;;;9.13;5.77;;;5.50;99.90;;;5.64;66.57;98573.03;5096612;28;20400;-62
2023/01/17 07:28:52;;;;;;;9.20;5.32;;;5.50;99.90;;;5.65;66.76;98564.28;5078129;28;20063;-62
2023/01/17 07:31:22;;;;;;;7.73;5.23;;;5.60;99.90;;;5.40;66.45;98522.03;5096158;28;20068;-62
2023/01/17 07:33:51;;;;;;;9.35;5.45;;;5.60;99.90;;;5.64;66.50;98565.16;5078350;28;20048;-63
2023/01/17 07:36:19;;;;;;;6.32;5.72;;;5.60;99.90;;;5.68;66.37;98574.69;5096256;28;20486;-62
2023/01/17 07:38:48;;;;;;;7.18;5.25;;;5.60;99.90;;;5.60;66.02;98567.00;5096524;28;20127;-62
2023/01/17 07:41:16;;;;;;;6.63;5.10;;;5.60;99.90;;;5.48;66.49;98564.63;5096762;28;20079;-63
2023/01/17 07:43:45;;;;;;;9.80;5.33;;;5.40;99.90;;;5.40;66.26;98556.09;5096106;28;20141;-62
2023/01/17 07:46:14;;;;;;;5.50;4.95;;;5.40;99.90;;;5.46;66.47;98574.28;5096094;28;20094;-62
2023/01/17 07:48:44;;;;;;;6.00;5.40;;;5.40;99.90;;;5.50;66.39;98575.94;5096310;28;20097;-63
2023/01/17 07:51:12;;;;;;;8.18;6.25;;;5.40;99.90;;;5.47;66.62;98560.31;5096162;28;20375;-63
2023/01/17 07:53:40;;;;;;;9.67;5.47;;;5.50;99.90;;;5.57;66.46;98580.19;5096138;28;20040;-62
2023/01/17 07:56:09;;;;;;;8.23;5.57;;;5.50;99.90;;;5.41;66.86;98536.84;5096392;28;20397;-62
2023/01/17 07:58:37;;;;;;;5.68;5.18;;;5.60;99.90;;;5.72;67.62;98585.09;5095742;28;20042;-63
2023/01/17 08:01:08;;;;;;;9.23;5.47;;;5.70;99.90;;;5.46;67.57;98561.19;5095752;28;20052;-62
2023/01/17 08:03:39;;;;;;;8.93;5.10;;;5.60;99.90;;;5.87;68.01;98584.78;5095777;28;20052;-63
2023/01/17 08:06:17;;;;;;;9.15;5.22;;;5.70;99.90;;;5.87;66.70;98582.16;5095716;28;20043;-63
2023/01/17 08:08:46;;;;;;;7.33;5.47;;;5.80;99.90;;;5.60;65.75;98556.50;5095835;28;20096;-62
2023/01/17 08:11:15;;;;;;;9.57;6.60;;;5.70;99.90;;;5.84;65.72;98582.25;5095573;28;20496;-62
2023/01/17 08:13:43;;;;;;;8.90;6.28;;;5.70;99.90;;;5.72;65.55;98551.00;5095344;28;20067;-62
2023/01/17 08:16:13;;;;;;;8.55;6.18;;;5.80;99.90;;;5.90;65.11;98597.84;5094075;28;20056;-62
2023/01/17 08:18:41;;;;;;;9.43;7.05;;;5.80;99.90;;;5.91;65.23;98583.81;5095762;28;20066;-62
2023/01/17 08:21:16;;;;;;;10.07;7.03;;;5.70;99.90;;;6.04;64.45;98587.88;5095450;28;20090;-62
2023/01/17 08:23:48;;;;;;;8.88;6.53;;;5.90;99.90;;;6.06;64.45;98582.59;5095670;28;20426;-62
2023/01/17 08:26:21;;;;;;;9.32;6.55;;;5.90;99.90;;;6.05;64.30;98571.25;5095635;28;20044;-62
2023/01/17 08:28:54;;;;;;;7.20;6.15;;;6.00;99.90;;;6.09;64.29;98583.41;5095079;28;20106;-62
2023/01/17 08:31:23;;;;;;;8.83;6.97;;;6.00;99.90;;;5.78;65.11;98529.03;5095467;28;20459;-62
2023/01/17 08:33:52;;;;;;;10.80;7.40;;;6.00;99.90;;;5.94;65.39;98570.63;5095070;28;20374;-63
2023/01/17 08:36:24;;;;;;;13.15;7.28;;;6.00;99.90;;;5.90;65.61;98570.75;5095012;28;20048;-62
2023/01/17 08:38:52;;;;;;;9.77;7.25;;;5.90;99.90;;;5.95;65.94;98584.59;5076993;28;20622;-62
2023/01/17 08:41:23;;;;;;;11.90;6.72;;;5.90;99.90;;;5.94;66.64;98586.34;5095239;28;20499;-63
2023/01/17 08:43:52;;;;;;;9.00;7.22;;;5.80;99.90;;;5.82;67.33;98576.13;5095625;28;20078;-62
2023/01/17 08:46:21;;;;;;;10.70;6.77;;;5.80;99.90;;;6.06;67.04;98596.56;5095219;28;20044;-62
2023/01/17 08:48:55;;;;;;;9.10;6.53;;;5.90;99.90;;;6.13;67.11;98589.44;5095134;28;20052;-62
2023/01/17 08:51:26;;;;;;;8.75;6.40;;;6.00;99.90;;;6.25;65.84;98590.00;5095073;28;20491;-62
2023/01/17 08:53:56;;;;;;;6.17;5.57;;;6.10;99.90;;;6.19;65.54;98590.13;5076740;28;20139;-62
2023/01/17 08:56:26;;;;;;;7.80;6.03;;;6.10;99.90;;;6.28;65.29;98596.94;5095020;28;20036;-62
2023/01/17 08:58:54;;;;;;;9.15;5.68;;;6.20;99.90;;;6.39;64.77;98592.28;5094642;28;20093;-62
2023/01/17 09:01:22;;;;;;;11.57;6.05;;;6.20;99.90;;;6.51;65.25;98570.13;5094846;28;20082;-63
2023/01/17 09:03:51;;;;;;;12.15;7.47;;;6.50;99.90;;;6.76;65.52;98568.59;5094484;28;20040;-63
2023/01/17 09:06:20;;;;;;;14.93;6.95;;;6.70;99.90;;;7.02;65.01;98574.03;5094462;28;20047;-62
2023/01/17 09:08:53;;;;;;;11.38;6.63;;;7.00;99.90;;;7.53;65.14;98601.47;5094675;28;20036;-63
2023/01/17 09:11:22;;;;;;;9.10;6.32;;;7.30;99.90;;;7.51;63.54;98597.19;5094722;28;20048;-63
2023/01/17 09:13:50;;;;;;;11.75;6.13;;;7.40;99.90;;;7.49;62.96;98599.81;5094426;28;20401;-63
2023/01/17 09:16:18;;;;;;;7.38;6.18;;;7.40;99.90;;;7.56;62.56;98611.03;5094584;28;20052;-63
2023/01/17 09:18:47;;;;;;;12.68;7.35;;;7.40;99.90;;;7.43;62.24;98607.06;5094291;28;20044;-63
2023/01/17 09:21:17;;;;;;;7.15;5.70;;;7.30;99.90;;;6.95;62.55;98586.44;5094273;28;20048;-62
2023/01/17 09:23:46;;;;;;;8.90;5.55;;;7.00;99.90;;;6.89;63.04;98607.63;5094253;28;20447;-63
2023/01/17 09:26:20;;;;;;;6.47;5.53;;;6.80;99.90;;;6.77;62.28;98609.72;5093809;28;20048;-63
2023/01/17 09:28:49;;;;;;;7.57;5.95;;;6.60;99.90;;;6.73;63.03;98592.31;5094187;28;20126;-63
2023/01/17 09:31:20;;;;;;;6.85;6.22;;;6.60;99.90;;;6.70;62.86;98597.63;5094114;28;20040;-62
2023/01/17 09:33:49;;;;;;;9.82;5.88;;;6.60;99.90;;;6.58;62.29;98613.72;5092969;28;20459;-62
2023/01/17 09:36:18;;;;;;;8.50;4.80;;;6.60;99.90;;;6.63;63.01;98617.94;5094026;28;20033;-62
2023/01/17 09:38:47;;;;;;;7.22;5.15;;;6.50;99.90;;;6.62;62.90;98623.25;5094060;28;20102;-62
2023/01/17 09:41:26;;;;;;;6.95;5.05;;;6.50;99.90;;;6.59;63.10;98624.19;5093701;28;20044;-63
2023/01/17 09:44:05;;;;;;;6.87;5.00;;;6.50;99.90;;;6.42;63.00;98592.22;5094212;28;20036;-63
2023/01/17 09:46:39;;;;;;;7.30;5.45;;;6.50;99.90;;;6.72;62.60;98622.97;5093872;28;20486;-63
2023/01/17 09:49:32;;;;;;;5.72;4.90;;;6.50;99.90;;;6.84;63.00;98632.28;5093817;28;20090;-63
2023/01/17 09:52:02;;;;;;;9.52;5.50;;;6.60;99.90;;;6.63;62.77;98583.81;5093712;28;20442;-62
2023/01/17 09:54:35;;;;;;;5.40;5.00;;;6.70;99.90;;;6.94;62.52;98607.50;5093879;28;20101;-62
2023/01/17 09:57:18;;;;;;;9.18;5.78;;;6.90;99.90;;;7.10;62.02;98638.59;5093956;28;20051;-63
2023/01/17 09:59:56;;;;;;;6.07;5.35;;;6.90;99.90;;;6.77;62.07;98568.56;5092591;28;20055;-63
2023/01/17 10:02:54;;;;;;;9.57;6.03;;;7.00;99.90;;;7.29;61.25;98646.88;5093334;28;20058;-62
2023/01/17 10:05:37;;;;;;;5.73;5.13;;;7.10;99.90;;;7.42;61.71;98647.38;5093792;28;20043;-63
2023/01/17 10:08:20;;;;;;;7.45;4.88;;;7.30;99.90;;;7.60;61.33;98647.75;5093474;28;20668;-66
2023/01/17 10:11:10;;;;;;;6.30;5.15;;;7.40;99.90;;;7.92;61.50;98662.59;5093398;28;20410;-63
2023/01/17 10:13:54;;;;;;;6.55;5.25;;;7.70;99.90;;;8.29;61.19;98662.38;5093233;28;20095;-63
2023/01/17 10:16:39;;;;;;;7.80;4.82;;;8.10;99.90;;;8.76;61.09;98660.00;5093386;28;20401;-63
2023/01/17 10:19:31;;;;;;;5.72;5.13;;;8.60;99.90;;;9.19;58.99;98667.31;5093303;28;20572;-63
2023/01/17 10:22:19;;;;;;;6.25;4.95;;;9.10;99.90;;;9.63;58.29;98668.38;5093302;28;20097;-63
2023/01/17 10:25:13;;;;;;;4.80;4.40;;;9.50;99.90;;;10.07;56.96;98669.38;5093231;28;20481;-63
2023/01/17 10:27:47;;;;;;;5.22;4.45;;;9.90;99.90;;;10.33;55.72;98671.94;5075293;28;20048;-64
2023/01/17 10:30:24;;;;;;;4.85;4.35;;;10.30;99.90;;;10.38;54.76;98669.97;5093391;28;20385;-63
2023/01/17 10:32:55;;;;;;;4.85;4.32;;;10.30;99.90;;;10.62;55.04;98675.16;5092908;28;20561;-63
2023/01/17 10:35:28;;;;;;;;;;;10.50;99.90;;;10.86;53.76;98683.88;5093619;28;20036;-63
2023/01/17 10:37:58;;;;;;;4.80;4.35;;;10.80;99.90;;;10.79;52.78;98706.22;5092791;28;19966;-62
2023/01/17 10:40:34;;;;;;;5.47;4.68;;;10.80;99.90;;;10.78;52.06;98681.53;5092857;28;20048;-63
2023/01/17 10:43:13;;;;;;;5.05;4.50;;;10.70;99.90;;;10.73;52.06;98672.09;5093125;28;20062;-63
2023/01/17 10:45:51;;;;;;;;;;;10.60;99.90;;;10.62;51.89;98669.00;5093480;28;20040;-63
2023/01/17 10:48:34;;;;;;;8.25;4.22;;;10.50;99.90;;;10.44;51.96;98665.31;5093061;28;19926;-62
2023/01/17 10:51:26;;;;;;;6.30;4.47;;;10.30;99.90;;;10.38;52.57;98670.84;5093254;28;20059;-63
2023/01/17 10:54:13;;;;;;;7.78;5.07;;;10.20;99.90;;;10.36;53.21;98680.59;5093295;28;20135;-62
2023/01/17 10:56:42;;;;;;;6.35;4.75;;;10.20;99.90;;;10.27;53.32;98680.97;5093117;28;20496;-62
2023/01/17 10:59:21;;;;;;;4.22;3.83;;;10.10;99.90;;;10.26;53.13;98665.19;5074989;28;20489;-63
2023/01/17 11:01:51;;;;;;;5.25;3.70;;;10.10;99.90;;;10.43;53.36;98678.59;5092798;28;20079;-63
2023/01/17 11:04:23;;;;;;;7.37;4.07;;;10.20;99.90;;;10.54;53.32;98671.09;5092882;28;20131;-62
2023/01/17 11:07:13;;;;;;;5.05;4.55;;;10.40;99.90;;;10.87;53.63;98675.03;5074921;28;20317;-62
2023/01/17 11:09:45;;;;;;;6.93;4.55;;;10.70;99.90;;;11.14;53.38;98671.25;5092813;28;20032;-62
2023/01/17 11:12:21;;;;;;;5.93;3.78;;;11.00;99.90;;;11.25;53.23;98649.59;5093382;28;20126;-62
2023/01/17 11:15:01;;;;;;;4.47;4.13;;;11.30;99.90;;;11.55;52.65;98667.69;5092659;28;20501;-62
2023/01/17 11:17:33;;;;;;;5.10;4.45;;;11.50;99.90;;;11.74;52.47;98676.59;5092746;28;20040;-62
2023/01/17 11:20:26;;;;;;;4.47;4.07;;;11.60;99.90;;;11.77;51.37;98671.13;5092751;28;20044;-62
2023/01/17 11:23:14;;;;;;;5.47;4.15;;;11.70;99.90;;;11.91;51.13;98669.66;5090138;28;20113;-63
2023/01/17 11:25:50;;;;;;;4.80;4.40;;;11.80;99.90;;;11.85;49.46;98656.69;5092850;28;20052;-62
2023/01/17 11:28:24;;;;;;;5.50;4.97;;;11.80;99.90;;;11.74;49.00;98644.81;5074781;28;20044;-63
2023/01/17 11:30:56;;;;;;;6.45;4.47;;;11.70;99.90;;;11.99;49.57;98670.19;5092936;28;20060;-63
2023/01/17 11:33:52;;;;;;;4.30;3.90;;;11.80;99.90;;;11.92;48.59;98659.00;5092450;28;20044;-60
2023/01/17 11:36:23;;;;;;;5.32;4.63;;;11.80;99.90;;;12.14;49.67;98666.81;5092209;28;20051;-63
2023/01/17 11:39:01;;;;;;;;;;;11.90;99.90;;;12.07;49.52;98646.84;5075059;28;20048;-63
2023/01/17 11:41:35;;;;;;;4.20;3.80;;;12.00;99.90;;;12.15;48.13;98650.00;5092286;28;19920;-63
2023/01/17 11:44:21;;;;;;;5.15;4.38;;;12.10;99.90;;;12.02;47.92;98668.25;5074308;28;20048;-63
2023/01/17 11:47:07;;;;;;;4.38;4.07;;;11.90;99.90;;;11.59;46.15;98660.47;5092499;28;20040;-62
2023/01/17 11:49:40;;;;;;;4.22;3.92;;;11.60;99.90;;;11.41;45.85;98664.78;5093486;28;20048;-63
2023/01/17 11:52:10;;;;;;;4.20;3.67;;;11.40;99.90;;;10.86;47.00;98646.84;5096022;28;20048;-63
2023/01/17 11:54:41;;;;;;;5.10;4.13;;;10.90;99.90;;;10.36;48.36;98655.94;5095785;28;20122;-63
2023/01/17 11:57:24;;;;;;;6.20;3.80;;;10.30;99.90;;;10.54;47.28;98656.09;5095885;28;20123;-62
2023/01/17 12:00:02;;;;;;;4.30;3.90;;;10.30;99.90;;;10.22;48.24;98650.38;5095798;28;20056;-63
2023/01/17 12:03:06;;;;;;;4.10;3.65;;;10.10;99.90;;;10.04;49.25;98642.16;5095581;28;20074;-63
2023/01/17 12:05:52;;;;;;;4.65;4.10;;;9.90;99.90;;;10.54;49.46;98647.31;5095682;28;20052;-63
2023/01/17 12:08:50;;;;;;;4.00;3.50;;;10.20;99.90;;;10.74;48.26;98631.53;5096267;28;20055;-63
2023/01/17 12:11:29;;;;;;;5.25;4.32;;;10.50;99.90;;;10.65;47.24;98645.09;5077605;28;20477;-63